sensor_id;sensor_type;location;lat;lon;timestamp;P1;durP1;ratioP1;P2;durP2;ratioP2
47589;SDS011;33316;52.298;9.056;2022-08-26T00:00:30;4.95;;;2.95;;
47589;SDS011;33316;52.298;9.056;2022-08-26T00:02:56;7.63;;;3.25;;
47589;SDS011;33316;52.298;9.056;2022-08-26T00:05:22;6.38;;;3.33;;
47589;SDS011;33316;52.298;9.056;2022-08-26T00:07:48;5.45;;;3.22;;
47589;SDS011;33316;52.298;9.056;2022-08-26T00:10:15;4.55;;;3.40;;
47589;SDS011;33316;52.298;9.056;2022-08-26T00:12:41;8.38;;;3.67;;
47589;SDS011;33316;52.298;9.056;2022-08-26T00:15:09;6.15;;;3.20;;
47589;SDS011;33316;52.298;9.056;2022-08-26T00:17:37;5.63;;;3.10;;
47589;SDS011;33316;52.298;9.056;2022-08-26T00:20:04;6.72;;;2.97;;
47589;SDS011;33316;52.298;9.056;2022-08-26T00:22:30;7.40;;;3.55;;
47589;SDS011;33316;52.298;9.056;2022-08-26T00:24:56;4.97;;;3.08;;
47589;SDS011;33316;52.298;9.056;2022-08-26T00:27:22;5.15;;;3.22;;
47589;SDS011;33316;52.298;9.056;2022-08-26T00:29:47;6.03;;;3.50;;
47589;SDS011;33316;52.298;9.056;2022-08-26T00:32:13;5.43;;;3.70;;
47589;SDS011;33316;52.298;9.056;2022-08-26T00:34:38;3.95;;;2.85;;
47589;SDS011;33316;52.298;9.056;2022-08-26T00:37:04;6.38;;;3.45;;
47589;SDS011;33316;52.298;9.056;2022-08-26T00:39:30;6.88;;;3.47;;
47589;SDS011;33316;52.298;9.056;2022-08-26T00:41:55;7.00;;;3.85;;
47589;SDS011;33316;52.298;9.056;2022-08-26T00:44:21;4.88;;;3.38;;
47589;SDS011;33316;52.298;9.056;2022-08-26T00:46:48;7.40;;;3.83;;
47589;SDS011;33316;52.298;9.056;2022-08-26T00:49:21;5.00;;;3.33;;
47589;SDS011;33316;52.298;9.056;2022-08-26T00:51:55;5.95;;;3.35;;
47589;SDS011;33316;52.298;9.056;2022-08-26T00:54:26;5.47;;;3.50;;
47589;SDS011;33316;52.298;9.056;2022-08-26T00:56:56;4.72;;;3.17;;
47589;SDS011;33316;52.298;9.056;2022-08-26T00:59:29;5.95;;;3.42;;
47589;SDS011;33316;52.298;9.056;2022-08-26T01:01:56;6.40;;;3.65;;
47589;SDS011;33316;52.298;9.056;2022-08-26T01:04:22;6.68;;;3.45;;
47589;SDS011;33316;52.298;9.056;2022-08-26T01:06:49;3.78;;;3.25;;
47589;SDS011;33316;52.298;9.056;2022-08-26T01:09:16;5.45;;;3.47;;
47589;SDS011;33316;52.298;9.056;2022-08-26T01:11:43;6.40;;;3.70;;
47589;SDS011;33316;52.298;9.056;2022-08-26T01:14:10;5.57;;;3.53;;
47589;SDS011;33316;52.298;9.056;2022-08-26T01:16:37;5.25;;;3.25;;
47589;SDS011;33316;52.298;9.056;2022-08-26T01:20:05;5.13;;;3.67;;
47589;SDS011;33316;52.298;9.056;2022-08-26T01:22:16;6.10;;;3.50;;
47589;SDS011;33316;52.298;9.056;2022-08-26T01:24:47;7.25;;;3.75;;
47589;SDS011;33316;52.298;9.056;2022-08-26T01:27:15;6.25;;;3.72;;
47589;SDS011;33316;52.298;9.056;2022-08-26T01:29:43;5.25;;;3.53;;
47589;SDS011;33316;52.298;9.056;2022-08-26T01:32:11;5.53;;;3.83;;
47589;SDS011;33316;52.298;9.056;2022-08-26T01:34:39;5.63;;;4.10;;
47589;SDS011;33316;52.298;9.056;2022-08-26T01:39:37;6.25;;;3.90;;
47589;SDS011;33316;52.298;9.056;2022-08-26T01:42:04;6.70;;;3.92;;
47589;SDS011;33316;52.298;9.056;2022-08-26T01:44:34;5.60;;;3.38;;
47589;SDS011;33316;52.298;9.056;2022-08-26T01:47:04;5.93;;;3.67;;
47589;SDS011;33316;52.298;9.056;2022-08-26T01:49:31;5.28;;;3.72;;
47589;SDS011;33316;52.298;9.056;2022-08-26T01:51:59;5.07;;;3.28;;
47589;SDS011;33316;52.298;9.056;2022-08-26T01:54:26;6.90;;;4.05;;
47589;SDS011;33316;52.298;9.056;2022-08-26T01:56:52;6.28;;;3.70;;
47589;SDS011;33316;52.298;9.056;2022-08-26T01:59:18;6.15;;;3.63;;
47589;SDS011;33316;52.298;9.056;2022-08-26T02:01:45;6.45;;;4.03;;
47589;SDS011;33316;52.298;9.056;2022-08-26T02:04:16;7.05;;;3.97;;
47589;SDS011;33316;52.298;9.056;2022-08-26T02:06:49;7.82;;;3.90;;
47589;SDS011;33316;52.298;9.056;2022-08-26T02:09:16;7.25;;;3.83;;
47589;SDS011;33316;52.298;9.056;2022-08-26T02:11:43;9.05;;;3.88;;
47589;SDS011;33316;52.298;9.056;2022-08-26T02:14:14;8.63;;;4.43;;
47589;SDS011;33316;52.298;9.056;2022-08-26T02:16:44;4.78;;;3.50;;
47589;SDS011;33316;52.298;9.056;2022-08-26T02:19:17;6.05;;;3.97;;
47589;SDS011;33316;52.298;9.056;2022-08-26T02:21:46;6.25;;;3.83;;
47589;SDS011;33316;52.298;9.056;2022-08-26T02:24:16;6.40;;;4.20;;
47589;SDS011;33316;52.298;9.056;2022-08-26T02:26:44;5.35;;;3.67;;
47589;SDS011;33316;52.298;9.056;2022-08-26T02:31:58;8.02;;;4.03;;
47589;SDS011;33316;52.298;9.056;2022-08-26T02:34:29;5.53;;;3.88;;
47589;SDS011;33316;52.298;9.056;2022-08-26T02:36:57;5.65;;;3.88;;
47589;SDS011;33316;52.298;9.056;2022-08-26T02:39:25;4.65;;;4.00;;
47589;SDS011;33316;52.298;9.056;2022-08-26T02:41:50;7.30;;;4.03;;
47589;SDS011;33316;52.298;9.056;2022-08-26T02:44:16;7.20;;;3.80;;
47589;SDS011;33316;52.298;9.056;2022-08-26T02:46:43;6.30;;;4.03;;
47589;SDS011;33316;52.298;9.056;2022-08-26T02:49:09;6.30;;;4.00;;
47589;SDS011;33316;52.298;9.056;2022-08-26T02:51:35;7.20;;;4.28;;
47589;SDS011;33316;52.298;9.056;2022-08-26T02:54:01;8.02;;;4.30;;
47589;SDS011;33316;52.298;9.056;2022-08-26T02:56:27;6.78;;;4.25;;
47589;SDS011;33316;52.298;9.056;2022-08-26T02:58:53;5.55;;;3.78;;
47589;SDS011;33316;52.298;9.056;2022-08-26T03:01:26;6.55;;;3.88;;
47589;SDS011;33316;52.298;9.056;2022-08-26T03:03:56;7.35;;;3.85;;
47589;SDS011;33316;52.298;9.056;2022-08-26T03:06:24;6.72;;;4.47;;
47589;SDS011;33316;52.298;9.056;2022-08-26T03:08:50;5.13;;;3.95;;
47589;SDS011;33316;52.298;9.056;2022-08-26T03:11:16;7.28;;;4.22;;
47589;SDS011;33316;52.298;9.056;2022-08-26T03:13:42;4.97;;;4.05;;
47589;SDS011;33316;52.298;9.056;2022-08-26T03:16:08;6.13;;;4.22;;
47589;SDS011;33316;52.298;9.056;2022-08-26T03:18:34;6.22;;;3.92;;
47589;SDS011;33316;52.298;9.056;2022-08-26T03:21:18;5.97;;;4.22;;
47589;SDS011;33316;52.298;9.056;2022-08-26T03:23:43;9.52;;;4.28;;
47589;SDS011;33316;52.298;9.056;2022-08-26T03:26:10;7.55;;;4.25;;
47589;SDS011;33316;52.298;9.056;2022-08-26T03:28:37;5.57;;;4.13;;
47589;SDS011;33316;52.298;9.056;2022-08-26T03:31:26;5.63;;;3.88;;
47589;SDS011;33316;52.298;9.056;2022-08-26T03:33:52;5.43;;;4.10;;
47589;SDS011;33316;52.298;9.056;2022-08-26T03:36:18;7.30;;;4.80;;
47589;SDS011;33316;52.298;9.056;2022-08-26T03:38:44;7.20;;;4.88;;
47589;SDS011;33316;52.298;9.056;2022-08-26T03:41:10;7.28;;;4.72;;
47589;SDS011;33316;52.298;9.056;2022-08-26T03:43:36;7.10;;;4.93;;
47589;SDS011;33316;52.298;9.056;2022-08-26T03:46:06;5.22;;;4.15;;
47589;SDS011;33316;52.298;9.056;2022-08-26T03:50:59;5.00;;;3.58;;
47589;SDS011;33316;52.298;9.056;2022-08-26T03:53:25;6.60;;;4.30;;
47589;SDS011;33316;52.298;9.056;2022-08-26T03:55:51;7.15;;;4.63;;
47589;SDS011;33316;52.298;9.056;2022-08-26T03:58:17;7.90;;;4.30;;
47589;SDS011;33316;52.298;9.056;2022-08-26T04:00:44;4.97;;;3.90;;
47589;SDS011;33316;52.298;9.056;2022-08-26T04:03:10;6.03;;;4.15;;
47589;SDS011;33316;52.298;9.056;2022-08-26T04:05:35;7.00;;;4.80;;
47589;SDS011;33316;52.298;9.056;2022-08-26T04:08:02;9.18;;;4.53;;
47589;SDS011;33316;52.298;9.056;2022-08-26T04:10:29;8.68;;;5.10;;
47589;SDS011;33316;52.298;9.056;2022-08-26T04:12:56;7.85;;;4.85;;
47589;SDS011;33316;52.298;9.056;2022-08-26T04:15:23;8.63;;;5.07;;
47589;SDS011;33316;52.298;9.056;2022-08-26T04:17:49;7.75;;;5.57;;
47589;SDS011;33316;52.298;9.056;2022-08-26T04:20:14;7.20;;;4.82;;
47589;SDS011;33316;52.298;9.056;2022-08-26T04:22:42;7.75;;;5.30;;
47589;SDS011;33316;52.298;9.056;2022-08-26T04:25:08;8.30;;;5.10;;
47589;SDS011;33316;52.298;9.056;2022-08-26T04:27:34;8.10;;;5.47;;
47589;SDS011;33316;52.298;9.056;2022-08-26T04:30:00;8.25;;;4.78;;
47589;SDS011;33316;52.298;9.056;2022-08-26T04:32:26;5.38;;;4.05;;
47589;SDS011;33316;52.298;9.056;2022-08-26T04:34:51;9.05;;;4.63;;
47589;SDS011;33316;52.298;9.056;2022-08-26T04:37:18;7.45;;;4.82;;
47589;SDS011;33316;52.298;9.056;2022-08-26T04:39:43;8.57;;;5.13;;
47589;SDS011;33316;52.298;9.056;2022-08-26T04:42:09;8.32;;;4.70;;
47589;SDS011;33316;52.298;9.056;2022-08-26T04:44:35;7.82;;;4.50;;
47589;SDS011;33316;52.298;9.056;2022-08-26T04:47:01;7.13;;;4.80;;
47589;SDS011;33316;52.298;9.056;2022-08-26T04:49:28;8.40;;;4.75;;
47589;SDS011;33316;52.298;9.056;2022-08-26T04:51:54;7.28;;;4.60;;
47589;SDS011;33316;52.298;9.056;2022-08-26T04:54:19;7.45;;;4.70;;
47589;SDS011;33316;52.298;9.056;2022-08-26T04:56:45;6.95;;;4.57;;
47589;SDS011;33316;52.298;9.056;2022-08-26T04:59:13;7.68;;;4.57;;
47589;SDS011;33316;52.298;9.056;2022-08-26T05:01:41;8.00;;;5.05;;
47589;SDS011;33316;52.298;9.056;2022-08-26T05:04:11;6.60;;;4.43;;
47589;SDS011;33316;52.298;9.056;2022-08-26T05:06:37;7.97;;;5.20;;
47589;SDS011;33316;52.298;9.056;2022-08-26T05:09:03;6.00;;;4.50;;
47589;SDS011;33316;52.298;9.056;2022-08-26T05:11:29;7.75;;;5.10;;
47589;SDS011;33316;52.298;9.056;2022-08-26T05:13:54;6.60;;;4.50;;
47589;SDS011;33316;52.298;9.056;2022-08-26T05:16:20;8.68;;;5.20;;
47589;SDS011;33316;52.298;9.056;2022-08-26T05:18:46;6.88;;;4.47;;
47589;SDS011;33316;52.298;9.056;2022-08-26T05:21:19;6.22;;;4.97;;
47589;SDS011;33316;52.298;9.056;2022-08-26T05:23:47;6.07;;;4.07;;
47589;SDS011;33316;52.298;9.056;2022-08-26T05:26:15;7.20;;;4.90;;
47589;SDS011;33316;52.298;9.056;2022-08-26T05:28:41;8.90;;;5.32;;
47589;SDS011;33316;52.298;9.056;2022-08-26T05:31:27;7.50;;;5.32;;
47589;SDS011;33316;52.298;9.056;2022-08-26T05:33:55;8.70;;;5.07;;
47589;SDS011;33316;52.298;9.056;2022-08-26T05:36:22;9.52;;;6.35;;
47589;SDS011;33316;52.298;9.056;2022-08-26T05:38:48;8.68;;;5.65;;
47589;SDS011;33316;52.298;9.056;2022-08-26T05:41:19;11.30;;;6.70;;
47589;SDS011;33316;52.298;9.056;2022-08-26T05:43:45;7.90;;;5.32;;
47589;SDS011;33316;52.298;9.056;2022-08-26T05:46:11;9.70;;;6.03;;
47589;SDS011;33316;52.298;9.056;2022-08-26T05:48:36;14.40;;;6.45;;
47589;SDS011;33316;52.298;9.056;2022-08-26T05:51:03;9.27;;;6.13;;
47589;SDS011;33316;52.298;9.056;2022-08-26T05:53:30;11.73;;;6.03;;
47589;SDS011;33316;52.298;9.056;2022-08-26T05:55:57;13.73;;;7.03;;
47589;SDS011;33316;52.298;9.056;2022-08-26T05:58:23;12.00;;;6.45;;
47589;SDS011;33316;52.298;9.056;2022-08-26T06:00:55;13.48;;;7.25;;
47589;SDS011;33316;52.298;9.056;2022-08-26T06:03:24;8.65;;;6.30;;
47589;SDS011;33316;52.298;9.056;2022-08-26T06:05:50;12.80;;;6.72;;
47589;SDS011;33316;52.298;9.056;2022-08-26T06:08:15;7.05;;;5.00;;
47589;SDS011;33316;52.298;9.056;2022-08-26T06:10:43;10.35;;;6.60;;
47589;SDS011;33316;52.298;9.056;2022-08-26T06:13:09;15.30;;;8.15;;
47589;SDS011;33316;52.298;9.056;2022-08-26T06:15:37;13.57;;;7.45;;
47589;SDS011;33316;52.298;9.056;2022-08-26T06:18:05;9.15;;;6.68;;
47589;SDS011;33316;52.298;9.056;2022-08-26T06:20:31;9.95;;;6.75;;
47589;SDS011;33316;52.298;9.056;2022-08-26T06:22:57;13.75;;;7.75;;
47589;SDS011;33316;52.298;9.056;2022-08-26T06:25:41;10.13;;;6.28;;
47589;SDS011;33316;52.298;9.056;2022-08-26T06:28:09;14.60;;;7.30;;
47589;SDS011;33316;52.298;9.056;2022-08-26T06:30:38;8.98;;;6.78;;
47589;SDS011;33316;52.298;9.056;2022-08-26T06:33:06;11.25;;;6.20;;
47589;SDS011;33316;52.298;9.056;2022-08-26T06:35:36;10.73;;;6.32;;
47589;SDS011;33316;52.298;9.056;2022-08-26T06:40:29;8.48;;;5.50;;
47589;SDS011;33316;52.298;9.056;2022-08-26T06:42:55;12.48;;;6.05;;
47589;SDS011;33316;52.298;9.056;2022-08-26T06:45:20;12.80;;;6.50;;
47589;SDS011;33316;52.298;9.056;2022-08-26T06:47:46;8.07;;;5.30;;
47589;SDS011;33316;52.298;9.056;2022-08-26T06:50:12;13.90;;;6.38;;
47589;SDS011;33316;52.298;9.056;2022-08-26T06:52:39;12.27;;;6.88;;
47589;SDS011;33316;52.298;9.056;2022-08-26T06:55:06;12.38;;;7.63;;
47589;SDS011;33316;52.298;9.056;2022-08-26T06:57:32;8.82;;;6.47;;
47589;SDS011;33316;52.298;9.056;2022-08-26T07:00:01;9.60;;;6.03;;
47589;SDS011;33316;52.298;9.056;2022-08-26T07:02:34;10.20;;;6.50;;
47589;SDS011;33316;52.298;9.056;2022-08-26T07:05:00;9.13;;;6.03;;
47589;SDS011;33316;52.298;9.056;2022-08-26T07:07:25;10.70;;;6.70;;
47589;SDS011;33316;52.298;9.056;2022-08-26T07:09:51;8.77;;;5.53;;
47589;SDS011;33316;52.298;9.056;2022-08-26T07:12:16;14.30;;;6.20;;
47589;SDS011;33316;52.298;9.056;2022-08-26T07:14:42;10.60;;;6.43;;
47589;SDS011;33316;52.298;9.056;2022-08-26T07:17:07;9.65;;;5.72;;
47589;SDS011;33316;52.298;9.056;2022-08-26T07:19:33;9.30;;;4.90;;
47589;SDS011;33316;52.298;9.056;2022-08-26T07:21:59;11.45;;;5.60;;
47589;SDS011;33316;52.298;9.056;2022-08-26T07:24:26;15.75;;;6.88;;
47589;SDS011;33316;52.298;9.056;2022-08-26T07:26:52;11.00;;;6.00;;
47589;SDS011;33316;52.298;9.056;2022-08-26T07:29:17;10.25;;;5.85;;
47589;SDS011;33316;52.298;9.056;2022-08-26T07:31:43;15.65;;;6.70;;
47589;SDS011;33316;52.298;9.056;2022-08-26T07:34:09;14.52;;;7.18;;
47589;SDS011;33316;52.298;9.056;2022-08-26T07:36:37;10.07;;;5.95;;
47589;SDS011;33316;52.298;9.056;2022-08-26T07:39:03;13.25;;;6.07;;
47589;SDS011;33316;52.298;9.056;2022-08-26T07:41:29;7.13;;;4.95;;
47589;SDS011;33316;52.298;9.056;2022-08-26T07:43:54;9.98;;;5.38;;
47589;SDS011;33316;52.298;9.056;2022-08-26T07:46:20;7.75;;;4.55;;
47589;SDS011;33316;52.298;9.056;2022-08-26T07:48:46;8.90;;;5.65;;
47589;SDS011;33316;52.298;9.056;2022-08-26T07:51:13;12.07;;;5.88;;
47589;SDS011;33316;52.298;9.056;2022-08-26T07:53:41;8.80;;;4.85;;
47589;SDS011;33316;52.298;9.056;2022-08-26T07:56:07;10.20;;;5.45;;
47589;SDS011;33316;52.298;9.056;2022-08-26T07:58:33;10.50;;;5.20;;
47589;SDS011;33316;52.298;9.056;2022-08-26T08:00:59;11.90;;;5.72;;
47589;SDS011;33316;52.298;9.056;2022-08-26T08:03:24;6.60;;;4.90;;
47589;SDS011;33316;52.298;9.056;2022-08-26T08:05:50;9.60;;;5.38;;
47589;SDS011;33316;52.298;9.056;2022-08-26T08:08:16;9.98;;;5.55;;
47589;SDS011;33316;52.298;9.056;2022-08-26T08:10:41;8.07;;;4.72;;
47589;SDS011;33316;52.298;9.056;2022-08-26T08:13:08;11.98;;;5.05;;
47589;SDS011;33316;52.298;9.056;2022-08-26T08:15:34;8.38;;;4.70;;
47589;SDS011;33316;52.298;9.056;2022-08-26T08:18:01;12.73;;;5.57;;
47589;SDS011;33316;52.298;9.056;2022-08-26T08:20:27;9.38;;;4.60;;
47589;SDS011;33316;52.298;9.056;2022-08-26T08:22:54;13.48;;;5.72;;
47589;SDS011;33316;52.298;9.056;2022-08-26T08:25:20;11.27;;;5.47;;
47589;SDS011;33316;52.298;9.056;2022-08-26T08:27:45;9.00;;;4.82;;
47589;SDS011;33316;52.298;9.056;2022-08-26T08:30:13;8.55;;;4.03;;
47589;SDS011;33316;52.298;9.056;2022-08-26T08:32:41;8.63;;;4.55;;
47589;SDS011;33316;52.298;9.056;2022-08-26T08:35:11;11.25;;;5.50;;
47589;SDS011;33316;52.298;9.056;2022-08-26T08:37:39;8.32;;;4.07;;
47589;SDS011;33316;52.298;9.056;2022-08-26T08:40:05;8.02;;;3.92;;
47589;SDS011;33316;52.298;9.056;2022-08-26T08:45:34;11.02;;;4.65;;
47589;SDS011;33316;52.298;9.056;2022-08-26T08:48:07;12.57;;;5.28;;
47589;SDS011;33316;52.298;9.056;2022-08-26T08:50:34;12.88;;;5.95;;
47589;SDS011;33316;52.298;9.056;2022-08-26T08:53:49;12.68;;;5.35;;
47589;SDS011;33316;52.298;9.056;2022-08-26T08:56:06;11.82;;;5.20;;
47589;SDS011;33316;52.298;9.056;2022-08-26T09:04:23;7.63;;;3.67;;
47589;SDS011;33316;52.298;9.056;2022-08-26T09:07:21;6.18;;;3.53;;
47589;SDS011;33316;52.298;9.056;2022-08-26T09:10:00;11.55;;;3.95;;
47589;SDS011;33316;52.298;9.056;2022-08-26T09:12:32;6.35;;;3.33;;
47589;SDS011;33316;52.298;9.056;2022-08-26T09:15:03;6.90;;;3.80;;
47589;SDS011;33316;52.298;9.056;2022-08-26T09:23:14;12.63;;;4.40;;
47589;SDS011;33316;52.298;9.056;2022-08-26T09:25:44;7.68;;;3.40;;
47589;SDS011;33316;52.298;9.056;2022-08-26T09:28:16;6.93;;;4.13;;
47589;SDS011;33316;52.298;9.056;2022-08-26T09:30:44;6.95;;;3.83;;
47589;SDS011;33316;52.298;9.056;2022-08-26T09:33:15;9.35;;;4.25;;
47589;SDS011;33316;52.298;9.056;2022-08-26T09:35:43;11.68;;;5.07;;
47589;SDS011;33316;52.298;9.056;2022-08-26T09:38:31;7.47;;;3.97;;
47589;SDS011;33316;52.298;9.056;2022-08-26T09:41:02;7.95;;;4.88;;
47589;SDS011;33316;52.298;9.056;2022-08-26T09:43:30;10.90;;;4.57;;
47589;SDS011;33316;52.298;9.056;2022-08-26T09:46:09;7.38;;;4.10;;
47589;SDS011;33316;52.298;9.056;2022-08-26T09:48:38;13.48;;;4.82;;
47589;SDS011;33316;52.298;9.056;2022-08-26T09:51:06;7.68;;;4.53;;
47589;SDS011;33316;52.298;9.056;2022-08-26T09:53:56;8.65;;;4.63;;
47589;SDS011;33316;52.298;9.056;2022-08-26T09:56:24;9.70;;;5.00;;
47589;SDS011;33316;52.298;9.056;2022-08-26T09:58:56;7.30;;;4.32;;
47589;SDS011;33316;52.298;9.056;2022-08-26T10:04:41;11.13;;;4.30;;
47589;SDS011;33316;52.298;9.056;2022-08-26T10:06:58;6.05;;;3.83;;
47589;SDS011;33316;52.298;9.056;2022-08-26T10:09:26;5.13;;;3.47;;
47589;SDS011;33316;52.298;9.056;2022-08-26T10:11:55;8.63;;;4.88;;
47589;SDS011;33316;52.298;9.056;2022-08-26T10:14:28;10.10;;;4.07;;
47589;SDS011;33316;52.298;9.056;2022-08-26T10:16:59;6.80;;;4.18;;
47589;SDS011;33316;52.298;9.056;2022-08-26T10:19:39;9.68;;;4.75;;
47589;SDS011;33316;52.298;9.056;2022-08-26T10:22:11;9.25;;;3.90;;
47589;SDS011;33316;52.298;9.056;2022-08-26T10:24:49;8.32;;;3.58;;
47589;SDS011;33316;52.298;9.056;2022-08-26T10:29:50;8.43;;;4.03;;
47589;SDS011;33316;52.298;9.056;2022-08-26T10:32:30;10.10;;;4.35;;
47589;SDS011;33316;52.298;9.056;2022-08-26T10:35:20;6.15;;;3.25;;
47589;SDS011;33316;52.298;9.056;2022-08-26T10:37:47;9.52;;;3.20;;
47589;SDS011;33316;52.298;9.056;2022-08-26T10:40:17;7.78;;;3.67;;
47589;SDS011;33316;52.298;9.056;2022-08-26T10:42:55;7.18;;;3.60;;
47589;SDS011;33316;52.298;9.056;2022-08-26T10:45:28;8.73;;;3.72;;
47589;SDS011;33316;52.298;9.056;2022-08-26T10:48:01;11.63;;;4.00;;
47589;SDS011;33316;52.298;9.056;2022-08-26T10:50:32;6.40;;;2.80;;
47589;SDS011;33316;52.298;9.056;2022-08-26T11:00:58;5.95;;;2.88;;
47589;SDS011;33316;52.298;9.056;2022-08-26T11:06:29;4.90;;;2.97;;
47589;SDS011;33316;52.298;9.056;2022-08-26T11:14:09;10.75;;;4.85;;
47589;SDS011;33316;52.298;9.056;2022-08-26T11:16:56;9.48;;;4.07;;
47589;SDS011;33316;52.298;9.056;2022-08-26T11:22:01;6.07;;;3.35;;
47589;SDS011;33316;52.298;9.056;2022-08-26T11:27:10;9.18;;;4.13;;
47589;SDS011;33316;52.298;9.056;2022-08-26T11:35:04;5.70;;;3.70;;
47589;SDS011;33316;52.298;9.056;2022-08-26T11:37:55;5.40;;;3.85;;
47589;SDS011;33316;52.298;9.056;2022-08-26T11:42:56;4.22;;;2.70;;
47589;SDS011;33316;52.298;9.056;2022-08-26T11:45:42;7.65;;;3.53;;
47589;SDS011;33316;52.298;9.056;2022-08-26T11:48:16;6.35;;;3.78;;
47589;SDS011;33316;52.298;9.056;2022-08-26T11:50:57;5.82;;;2.90;;
47589;SDS011;33316;52.298;9.056;2022-08-26T11:53:24;9.50;;;3.65;;
47589;SDS011;33316;52.298;9.056;2022-08-26T11:55:51;9.65;;;4.43;;
47589;SDS011;33316;52.298;9.056;2022-08-26T11:58:19;9.10;;;3.92;;
47589;SDS011;33316;52.298;9.056;2022-08-26T12:03:23;9.55;;;4.40;;
47589;SDS011;33316;52.298;9.056;2022-08-26T12:05:55;8.60;;;4.47;;
47589;SDS011;33316;52.298;9.056;2022-08-26T12:08:24;8.68;;;4.45;;
47589;SDS011;33316;52.298;9.056;2022-08-26T12:11:06;12.57;;;5.55;;
47589;SDS011;33316;52.298;9.056;2022-08-26T12:13:34;5.03;;;2.75;;
47589;SDS011;33316;52.298;9.056;2022-08-26T12:16:01;6.28;;;2.70;;
47589;SDS011;33316;52.298;9.056;2022-08-26T12:18:31;4.63;;;2.13;;
47589;SDS011;33316;52.298;9.056;2022-08-26T12:21:00;2.75;;;1.67;;
47589;SDS011;33316;52.298;9.056;2022-08-26T12:23:41;4.60;;;2.00;;
47589;SDS011;33316;52.298;9.056;2022-08-26T12:26:17;3.05;;;2.17;;
47589;SDS011;33316;52.298;9.056;2022-08-26T12:28:50;4.93;;;1.90;;
47589;SDS011;33316;52.298;9.056;2022-08-26T12:31:23;2.67;;;1.67;;
47589;SDS011;33316;52.298;9.056;2022-08-26T12:34:18;4.93;;;2.45;;
47589;SDS011;33316;52.298;9.056;2022-08-26T12:36:45;5.15;;;3.45;;
47589;SDS011;33316;52.298;9.056;2022-08-26T12:39:35;6.60;;;3.20;;
47589;SDS011;33316;52.298;9.056;2022-08-26T12:49:40;7.55;;;2.83;;
47589;SDS011;33316;52.298;9.056;2022-08-26T12:52:08;6.18;;;3.20;;
47589;SDS011;33316;52.298;9.056;2022-08-26T12:54:54;4.68;;;2.60;;
47589;SDS011;33316;52.298;9.056;2022-08-26T12:57:31;3.20;;;2.28;;
47589;SDS011;33316;52.298;9.056;2022-08-26T13:02:55;4.25;;;2.08;;
47589;SDS011;33316;52.298;9.056;2022-08-26T13:05:23;7.40;;;2.20;;
47589;SDS011;33316;52.298;9.056;2022-08-26T13:08:23;4.63;;;3.38;;
47589;SDS011;33316;52.298;9.056;2022-08-26T13:11:00;4.53;;;2.97;;
47589;SDS011;33316;52.298;9.056;2022-08-26T13:13:28;8.13;;;3.97;;
47589;SDS011;33316;52.298;9.056;2022-08-26T13:15:54;7.68;;;3.75;;
47589;SDS011;33316;52.298;9.056;2022-08-26T13:18:20;6.93;;;3.33;;
47589;SDS011;33316;52.298;9.056;2022-08-26T13:20:45;8.60;;;3.83;;
47589;SDS011;33316;52.298;9.056;2022-08-26T13:23:11;5.28;;;3.15;;
47589;SDS011;33316;52.298;9.056;2022-08-26T13:25:38;5.40;;;3.28;;
47589;SDS011;33316;52.298;9.056;2022-08-26T13:28:03;8.60;;;3.58;;
47589;SDS011;33316;52.298;9.056;2022-08-26T13:30:29;4.55;;;2.70;;
47589;SDS011;33316;52.298;9.056;2022-08-26T13:32:55;4.53;;;2.50;;
47589;SDS011;33316;52.298;9.056;2022-08-26T13:35:23;2.28;;;1.95;;
47589;SDS011;33316;52.298;9.056;2022-08-26T13:37:49;2.97;;;1.60;;
47589;SDS011;33316;52.298;9.056;2022-08-26T13:40:14;1.80;;;1.38;;
47589;SDS011;33316;52.298;9.056;2022-08-26T13:42:40;5.00;;;1.13;;
47589;SDS011;33316;52.298;9.056;2022-08-26T13:45:06;2.05;;;1.20;;
47589;SDS011;33316;52.298;9.056;2022-08-26T13:47:33;2.03;;;1.23;;
47589;SDS011;33316;52.298;9.056;2022-08-26T13:49:59;1.63;;;1.13;;
47589;SDS011;33316;52.298;9.056;2022-08-26T13:52:25;1.27;;;0.98;;
47589;SDS011;33316;52.298;9.056;2022-08-26T13:54:50;1.13;;;0.90;;
47589;SDS011;33316;52.298;9.056;2022-08-26T13:57:16;1.33;;;0.90;;
47589;SDS011;33316;52.298;9.056;2022-08-26T13:59:41;2.72;;;1.40;;
47589;SDS011;33316;52.298;9.056;2022-08-26T14:02:07;2.28;;;1.60;;
47589;SDS011;33316;52.298;9.056;2022-08-26T14:04:32;2.55;;;1.15;;
47589;SDS011;33316;52.298;9.056;2022-08-26T14:06:58;1.65;;;1.02;;
47589;SDS011;33316;52.298;9.056;2022-08-26T14:09:23;2.65;;;1.35;;
47589;SDS011;33316;52.298;9.056;2022-08-26T14:11:49;3.67;;;2.08;;
47589;SDS011;33316;52.298;9.056;2022-08-26T14:14:15;2.70;;;1.90;;
47589;SDS011;33316;52.298;9.056;2022-08-26T14:16:40;2.70;;;1.70;;
47589;SDS011;33316;52.298;9.056;2022-08-26T14:19:06;2.30;;;1.73;;
47589;SDS011;33316;52.298;9.056;2022-08-26T14:21:33;2.42;;;1.63;;
47589;SDS011;33316;52.298;9.056;2022-08-26T14:24:01;3.38;;;1.85;;
47589;SDS011;33316;52.298;9.056;2022-08-26T14:26:27;2.20;;;1.55;;
47589;SDS011;33316;52.298;9.056;2022-08-26T14:28:52;3.40;;;1.88;;
47589;SDS011;33316;52.298;9.056;2022-08-26T14:31:19;2.35;;;1.55;;
47589;SDS011;33316;52.298;9.056;2022-08-26T14:33:46;2.67;;;1.75;;
47589;SDS011;33316;52.298;9.056;2022-08-26T14:36:12;1.50;;;1.40;;
47589;SDS011;33316;52.298;9.056;2022-08-26T14:38:53;3.90;;;1.83;;
47589;SDS011;33316;52.298;9.056;2022-08-26T14:41:20;2.97;;;1.45;;
47589;SDS011;33316;52.298;9.056;2022-08-26T14:43:53;2.08;;;1.33;;
47589;SDS011;33316;52.298;9.056;2022-08-26T14:46:30;2.38;;;1.48;;
47589;SDS011;33316;52.298;9.056;2022-08-26T14:49:00;2.65;;;1.80;;
47589;SDS011;33316;52.298;9.056;2022-08-26T14:51:26;1.98;;;1.48;;
47589;SDS011;33316;52.298;9.056;2022-08-26T14:53:52;2.35;;;1.63;;
47589;SDS011;33316;52.298;9.056;2022-08-26T14:56:37;2.97;;;2.22;;
47589;SDS011;33316;52.298;9.056;2022-08-26T14:59:11;3.30;;;2.20;;
47589;SDS011;33316;52.298;9.056;2022-08-26T15:01:37;4.68;;;1.70;;
47589;SDS011;33316;52.298;9.056;2022-08-26T15:04:03;1.95;;;1.42;;
47589;SDS011;33316;52.298;9.056;2022-08-26T15:06:29;3.90;;;2.20;;
47589;SDS011;33316;52.298;9.056;2022-08-26T15:08:55;2.63;;;2.05;;
47589;SDS011;33316;52.298;9.056;2022-08-26T15:11:21;4.03;;;1.92;;
47589;SDS011;33316;52.298;9.056;2022-08-26T15:13:47;4.25;;;2.28;;
47589;SDS011;33316;52.298;9.056;2022-08-26T15:16:13;2.80;;;2.35;;
47589;SDS011;33316;52.298;9.056;2022-08-26T15:18:38;2.65;;;2.15;;
47589;SDS011;33316;52.298;9.056;2022-08-26T15:21:05;4.20;;;2.10;;
47589;SDS011;33316;52.298;9.056;2022-08-26T15:23:31;2.63;;;2.30;;
47589;SDS011;33316;52.298;9.056;2022-08-26T15:25:57;3.95;;;2.13;;
47589;SDS011;33316;52.298;9.056;2022-08-26T15:28:23;3.63;;;2.28;;
47589;SDS011;33316;52.298;9.056;2022-08-26T15:30:48;3.40;;;2.17;;
47589;SDS011;33316;52.298;9.056;2022-08-26T15:33:15;3.45;;;1.98;;
47589;SDS011;33316;52.298;9.056;2022-08-26T15:35:40;2.00;;;1.80;;
47589;SDS011;33316;52.298;9.056;2022-08-26T15:38:06;3.05;;;2.03;;
47589;SDS011;33316;52.298;9.056;2022-08-26T15:40:32;2.67;;;1.85;;
47589;SDS011;33316;52.298;9.056;2022-08-26T15:42:57;3.47;;;1.85;;
47589;SDS011;33316;52.298;9.056;2022-08-26T15:45:23;4.18;;;2.65;;
47589;SDS011;33316;52.298;9.056;2022-08-26T15:47:49;3.13;;;2.28;;
47589;SDS011;33316;52.298;9.056;2022-08-26T15:50:14;4.88;;;2.50;;
47589;SDS011;33316;52.298;9.056;2022-08-26T15:52:40;3.25;;;2.25;;
47589;SDS011;33316;52.298;9.056;2022-08-26T15:55:06;2.92;;;2.17;;
47589;SDS011;33316;52.298;9.056;2022-08-26T15:57:32;5.22;;;2.47;;
47589;SDS011;33316;52.298;9.056;2022-08-26T15:59:59;3.10;;;2.30;;
47589;SDS011;33316;52.298;9.056;2022-08-26T16:02:24;3.45;;;2.22;;
47589;SDS011;33316;52.298;9.056;2022-08-26T16:04:50;4.55;;;2.47;;
47589;SDS011;33316;52.298;9.056;2022-08-26T16:07:15;3.25;;;1.80;;